Sklinnabanken — LJQM — position and weather

sailwx.info

Track history (hours):
 
Tides and Currents Weather Stations Pressure Air Temp Water Temp Dewpoint Dewpoint Depression Visibility Wind Speed Wind Dir Waves Ship Positions

Sklinnabanken

Last reported at 2015-Apr-06 23:05 UTC. Time now 2015-Apr-22 01:42 UTC.
Position N 62°27' E 006°12'.
Warning: this ship's position is 15 days out of date.

Length 28 m; draft 6 m.

Type: Fishing. MMSI: 259648000.

Date/timePositionNaut miles runAvg speedWind from/ knotsBaromVisibWave heightAir tempDewpointWater temp
2015-Apr-06 23:05N 62°27' E 006°12'  
2015-Apr-02 00:29N 63°27' E 008°45'22 7.4
2015-Apr-01 21:33N 63°37' E 009°28'8 8.1
2015-Apr-01 20:33N 63°45' E 009°32'74 7.9
2015-Apr-01 11:11N 64°47' E 011°04'5 8.4
2015-Apr-01 10:33N 64°51' E 011°13'8 8.1
2015-Apr-01 09:33N 64°56' E 011°27'78 4.9
2015-Mar-31 17:32N 66°08' E 012°46'10 8.4
2015-Mar-31 16:20N 66°17' E 012°55'7 8.4
2015-Mar-31 15:33N 66°23' E 012°58'22 5.0
2015-Mar-31 11:07N 66°45' E 013°15'6 8.1
2015-Mar-31 10:22N 66°51' E 013°18'7 8.0
2015-Mar-31 09:27N 66°57' E 013°29'7 8.2
2015-Mar-31 08:33N 67°01' E 013°44'8 8.5
2015-Mar-31 07:33N 67°07' E 013°60'8 8.3
2015-Mar-31 06:33N 67°14' E 014°09'8 8.4
2015-Mar-31 05:33N 67°21' E 014°22'8 8.3
2015-Mar-31 04:33N 67°29' E 014°29'9 8.7
2015-Mar-31 03:34N 67°38' E 014°30'9 8.5
2015-Mar-31 02:31N 67°47' E 014°31'7 7.9
2015-Mar-31 01:33N 67°54' E 014°37'135 7.9
2015-Mar-30 08:32N 69°34' E 018°48'8 7.9
2015-Mar-30 07:33N 69°40' E 019°01'86 7.8
2015-Mar-29 20:32N 70°26' E 022°33'8 7.7
2015-Mar-29 19:32N 70°30' E 022°53'8 7.9
2015-Mar-29 18:33N 70°35' E 023°08'8 7.9
2015-Mar-29 17:33N 70°42' E 023°22'8 7.6
2015-Mar-29 16:32N 70°49' E 023°34'  
Track history (hours):
 
Tides and Currents Weather Stations Pressure Air Temp Water Temp Dewpoint Dewpoint Depression Visibility Wind Speed Wind Dir Waves Ship Positions

Sklinnabanken

Last reported at 2015-Apr-06 23:05 UTC. Time now 2015-Apr-22 01:42 UTC.
Position N 62°27' E 006°12'.
Warning: this ship's position is 15 days out of date.

Length 28 m; draft 6 m.

Type: Fishing. MMSI: 259648000.

Date/timePositionNaut miles runAvg speedWind from/ knotsBaromVisibWave heightAir tempDewpointWater temp
2015-Apr-06 23:05N 62°27' E 006°12'  
2015-Apr-02 00:29N 63°27' E 008°45'22 7.4
2015-Apr-01 21:33N 63°37' E 009°28'8 8.1
2015-Apr-01 20:33N 63°45' E 009°32'74 7.9
2015-Apr-01 11:11N 64°47' E 011°04'5 8.4
2015-Apr-01 10:33N 64°51' E 011°13'8 8.1
2015-Apr-01 09:33N 64°56' E 011°27'78 4.9
2015-Mar-31 17:32N 66°08' E 012°46'10 8.4
2015-Mar-31 16:20N 66°17' E 012°55'7 8.4
2015-Mar-31 15:33N 66°23' E 012°58'22 5.0
2015-Mar-31 11:07N 66°45' E 013°15'6 8.1
2015-Mar-31 10:22N 66°51' E 013°18'7 8.0
2015-Mar-31 09:27N 66°57' E 013°29'7 8.2
2015-Mar-31 08:33N 67°01' E 013°44'8 8.5
2015-Mar-31 07:33N 67°07' E 013°60'8 8.3
2015-Mar-31 06:33N 67°14' E 014°09'8 8.4
2015-Mar-31 05:33N 67°21' E 014°22'8 8.3
2015-Mar-31 04:33N 67°29' E 014°29'9 8.7
2015-Mar-31 03:34N 67°38' E 014°30'9 8.5
2015-Mar-31 02:31N 67°47' E 014°31'7 7.9
2015-Mar-31 01:33N 67°54' E 014°37'135 7.9
2015-Mar-30 08:32N 69°34' E 018°48'8 7.9
2015-Mar-30 07:33N 69°40' E 019°01'86 7.8
2015-Mar-29 20:32N 70°26' E 022°33'8 7.7
2015-Mar-29 19:32N 70°30' E 022°53'8 7.9
2015-Mar-29 18:33N 70°35' E 023°08'8 7.9
2015-Mar-29 17:33N 70°42' E 023°22'8 7.6
2015-Mar-29 16:32N 70°49' E 023°34'  

Dump ship's entire track history